createdAt,value
2023-11-18T00:01:59.339Z,6.33
2023-11-18T00:04:26.321Z,5.37
2023-11-18T00:06:53.213Z,6.33
2023-11-18T00:09:20.051Z,4.87
2023-11-18T00:11:47.000Z,7.20
2023-11-18T00:14:16.576Z,7.23
2023-11-18T00:16:43.610Z,4.83
2023-11-18T00:19:10.722Z,4.97
2023-11-18T00:21:37.634Z,12.70
2023-11-18T00:24:05.526Z,5.50
2023-11-18T00:26:32.451Z,7.00
2023-11-18T00:28:59.438Z,7.03
2023-11-18T00:31:29.167Z,6.43
2023-11-18T00:33:56.342Z,5.50
2023-11-18T00:36:23.242Z,6.63
2023-11-18T00:38:50.156Z,6.83
2023-11-18T00:41:17.139Z,4.93
2023-11-18T00:43:44.093Z,6.03
2023-11-18T00:46:11.113Z,5.60
2023-11-18T00:48:40.658Z,6.37
2023-11-18T00:51:07.767Z,7.37
2023-11-18T00:53:34.663Z,5.37
2023-11-18T00:56:01.617Z,7.57
2023-11-18T00:58:28.543Z,7.83
2023-11-18T01:00:55.489Z,6.00
2023-11-18T01:03:22.443Z,9.40
2023-11-18T01:05:51.940Z,11.77
2023-11-18T01:08:18.827Z,6.00
2023-11-18T01:10:45.713Z,6.43
2023-11-18T01:13:12.655Z,7.03
2023-11-18T01:15:39.545Z,6.73
2023-11-18T01:18:06.547Z,6.37
2023-11-18T01:20:33.484Z,7.17
2023-11-18T01:23:03.141Z,7.27
2023-11-18T01:25:30.091Z,11.30
2023-11-18T01:27:56.980Z,8.13
2023-11-18T01:30:23.991Z,5.03
2023-11-18T01:32:51.134Z,7.13
2023-11-18T01:35:18.221Z,6.63
2023-11-18T01:37:45.213Z,8.73
2023-11-18T01:40:15.058Z,6.30
2023-11-18T01:42:43.537Z,5.87
2023-11-18T01:45:11.203Z,6.60
2023-11-18T01:47:38.311Z,6.00
2023-11-18T01:50:08.650Z,7.00
2023-11-18T01:52:36.076Z,7.00
2023-11-18T01:55:03.784Z,8.00
2023-11-18T01:57:33.469Z,8.70
2023-11-18T02:00:00.590Z,6.97
2023-11-18T02:02:27.874Z,9.00
2023-11-18T02:04:54.867Z,6.83
2023-11-18T02:07:21.812Z,7.53
2023-11-18T02:09:48.759Z,6.30
2023-11-18T02:12:22.810Z,7.47
2023-11-18T02:14:54.409Z,7.10
2023-11-18T02:17:23.318Z,9.20
2023-11-18T02:19:51.213Z,9.00
2023-11-18T02:22:18.939Z,7.90
2023-11-18T02:24:45.855Z,11.03
2023-11-18T02:27:15.362Z,9.60
2023-11-18T02:29:45.114Z,7.70
2023-11-18T02:32:18.596Z,11.53
2023-11-18T02:34:54.108Z,8.30
2023-11-18T02:37:22.209Z,8.47
2023-11-18T02:39:55.060Z,9.90
2023-11-18T02:42:25.689Z,7.97
2023-11-18T02:44:54.165Z,8.37
2023-11-18T02:47:21.661Z,7.83
2023-11-18T02:49:55.360Z,7.53
2023-11-18T02:52:22.281Z,8.20
2023-11-18T02:54:49.197Z,8.73
2023-11-18T02:57:16.092Z,8.37
2023-11-18T02:59:45.591Z,8.40
2023-11-18T03:02:12.592Z,9.43
2023-11-18T03:04:39.527Z,8.97
2023-11-18T03:07:06.900Z,8.53
2023-11-18T03:09:34.529Z,8.27
2023-11-18T03:12:01.414Z,8.77
2023-11-18T03:14:28.298Z,8.10
2023-11-18T03:16:57.803Z,8.30
2023-11-18T03:19:24.706Z,9.53
2023-11-18T03:21:52.171Z,7.53
2023-11-18T03:24:19.076Z,8.13
2023-11-18T03:26:45.970Z,8.13
2023-11-18T03:29:12.851Z,9.00
2023-11-18T03:31:39.890Z,8.07
2023-11-18T03:34:09.395Z,7.93
2023-11-18T03:36:36.343Z,8.77
2023-11-18T03:39:03.321Z,7.13
2023-11-18T03:41:30.180Z,9.40
2023-11-18T03:43:57.159Z,9.20
2023-11-18T03:46:24.113Z,8.80
2023-11-18T03:48:51.059Z,7.30
2023-11-18T03:51:20.536Z,10.03
2023-11-18T03:53:47.458Z,7.43
2023-11-18T03:56:17.959Z,7.30
2023-11-18T03:58:44.916Z,8.30
2023-11-18T04:01:12.288Z,7.13
2023-11-18T04:03:39.252Z,7.30
2023-11-18T04:06:07.170Z,6.83
2023-11-18T04:08:36.634Z,5.97
2023-11-18T04:11:03.750Z,8.40
2023-11-18T04:13:30.695Z,6.17
2023-11-18T04:15:57.603Z,6.70
2023-11-18T04:18:24.514Z,6.97
2023-11-18T04:20:51.989Z,7.33
2023-11-18T04:23:18.954Z,8.57
2023-11-18T04:25:48.449Z,7.77
2023-11-18T04:28:15.374Z,6.90
2023-11-18T04:30:42.395Z,6.57
2023-11-18T04:33:09.374Z,7.60
2023-11-18T04:35:36.362Z,6.97
2023-11-18T04:38:03.326Z,5.63
2023-11-18T04:40:30.251Z,7.77
2023-11-18T04:42:59.719Z,6.53
2023-11-18T04:45:26.607Z,7.90
2023-11-18T04:47:53.604Z,6.93
2023-11-18T04:50:20.536Z,8.00
2023-11-18T04:52:47.448Z,7.13
2023-11-18T04:55:14.796Z,6.03
2023-11-18T04:57:41.791Z,5.37
2023-11-18T05:00:12.936Z,5.33
2023-11-18T05:02:40.368Z,6.93
2023-11-18T05:05:08.034Z,5.83
2023-11-18T05:07:35.014Z,6.90
2023-11-18T05:10:01.922Z,5.30
2023-11-18T05:12:29.389Z,5.90
2023-11-18T05:14:56.290Z,7.53
2023-11-18T05:17:25.890Z,6.53
2023-11-18T05:19:53.026Z,6.23
2023-11-18T05:22:20.024Z,6.73
2023-11-18T05:24:46.901Z,7.23
2023-11-18T05:27:13.881Z,7.07
2023-11-18T05:29:40.769Z,6.97
2023-11-18T05:32:08.310Z,6.87
2023-11-18T05:34:37.904Z,8.07
2023-11-18T05:37:05.170Z,6.83
2023-11-18T05:39:32.064Z,7.03
2023-11-18T05:41:59.099Z,6.03
2023-11-18T05:44:25.939Z,8.23
2023-11-18T05:46:53.025Z,6.17
2023-11-18T05:49:19.970Z,7.17
2023-11-18T05:51:49.476Z,6.20
2023-11-18T05:54:16.392Z,8.17
2023-11-18T05:56:43.338Z,7.77
2023-11-18T05:59:10.272Z,7.33
2023-11-18T06:01:37.518Z,8.33
2023-11-18T06:04:04.840Z,8.33
2023-11-18T06:06:31.820Z,7.13
2023-11-18T06:09:01.378Z,8.23
2023-11-18T06:11:28.573Z,10.27
2023-11-18T06:13:55.510Z,9.07
2023-11-18T06:16:24.039Z,9.20
2023-11-18T06:18:52.215Z,8.47
2023-11-18T06:21:20.647Z,9.13
2023-11-18T06:23:49.066Z,8.70
2023-11-18T06:26:19.015Z,8.77
2023-11-18T06:28:47.171Z,8.97
2023-11-18T06:31:14.186Z,8.70
2023-11-18T06:33:41.467Z,9.40
2023-11-18T06:36:09.099Z,10.67
2023-11-18T06:38:36.015Z,9.47
2023-11-18T06:41:04.615Z,9.40
2023-11-18T06:43:36.587Z,8.13
2023-11-18T06:46:03.795Z,10.90
2023-11-18T06:48:30.669Z,9.93
2023-11-18T06:50:57.544Z,8.80
2023-11-18T06:53:24.559Z,9.63
2023-11-18T06:55:51.443Z,8.80
2023-11-18T06:58:18.341Z,9.30
2023-11-18T07:00:48.194Z,11.37
2023-11-18T07:03:15.224Z,8.10
2023-11-18T07:05:43.024Z,10.77
2023-11-18T07:08:10.072Z,9.50
2023-11-18T07:10:37.048Z,7.87
2023-11-18T07:13:03.910Z,9.37
2023-11-18T07:15:30.789Z,9.00
2023-11-18T07:18:00.297Z,8.30
2023-11-18T07:20:27.238Z,8.37
2023-11-18T07:22:54.152Z,8.90
2023-11-18T07:25:21.240Z,8.83
2023-11-18T07:27:48.138Z,9.13
2023-11-18T07:30:15.150Z,9.50
2023-11-18T07:32:42.039Z,9.07
2023-11-18T07:35:11.937Z,8.83
2023-11-18T07:37:38.986Z,10.07
2023-11-18T07:40:07.150Z,11.17
2023-11-18T07:42:34.038Z,10.67
2023-11-18T07:45:00.955Z,8.40
2023-11-18T07:47:27.866Z,9.27
2023-11-18T07:49:54.764Z,10.87
2023-11-18T07:52:24.268Z,8.03
2023-11-18T07:54:53.564Z,8.27
2023-11-18T07:57:20.612Z,7.57
2023-11-18T07:59:47.500Z,7.83
2023-11-18T08:02:14.396Z,9.10
2023-11-18T08:04:41.313Z,7.93
2023-11-18T08:07:08.463Z,7.67
2023-11-18T08:09:37.947Z,8.43
2023-11-18T08:12:05.940Z,6.80
2023-11-18T08:14:32.805Z,9.27
2023-11-18T08:16:59.785Z,8.70
2023-11-18T08:19:26.697Z,8.27
2023-11-18T08:21:53.644Z,9.03
2023-11-18T08:24:20.576Z,9.30
2023-11-18T08:26:50.037Z,7.57
2023-11-18T08:29:16.945Z,7.57
2023-11-18T08:31:43.878Z,6.30
2023-11-18T08:34:10.850Z,8.20
2023-11-18T08:36:37.717Z,6.80
2023-11-18T08:39:04.693Z,6.60
2023-11-18T08:41:31.574Z,6.07
2023-11-18T08:44:13.554Z,8.00
2023-11-18T08:46:47.936Z,6.90
2023-11-18T08:49:14.833Z,6.10
2023-11-18T08:51:41.931Z,6.33
2023-11-18T08:54:09.068Z,6.50
2023-11-18T08:56:36.041Z,6.27
2023-11-18T08:59:05.531Z,8.03
2023-11-18T09:01:32.509Z,7.03
2023-11-18T09:03:59.460Z,8.03
2023-11-18T09:06:26.426Z,7.43
2023-11-18T09:08:53.598Z,6.40
2023-11-18T09:11:22.289Z,6.63
2023-11-18T09:13:50.378Z,6.97
2023-11-18T09:16:20.355Z,7.13
2023-11-18T09:18:47.363Z,7.47
2023-11-18T09:21:14.611Z,7.53
2023-11-18T09:23:42.497Z,7.33
2023-11-18T09:26:10.088Z,7.63
2023-11-18T09:28:38.128Z,8.20
2023-11-18T09:31:06.173Z,7.33
2023-11-18T09:33:36.222Z,6.03
2023-11-18T09:36:05.169Z,6.40
2023-11-18T09:38:33.507Z,6.10
2023-11-18T09:41:01.400Z,6.00
2023-11-18T09:43:28.386Z,5.53
2023-11-18T09:45:57.408Z,5.73
2023-11-18T09:48:24.559Z,5.63
2023-11-18T09:50:54.623Z,5.97
2023-11-18T09:53:21.634Z,6.00
2023-11-18T09:55:53.365Z,5.60
2023-11-18T09:58:20.316Z,5.77
2023-11-18T10:00:49.899Z,5.30
2023-11-18T10:03:17.039Z,5.70
2023-11-18T10:05:45.407Z,5.30
2023-11-18T10:08:14.870Z,5.93
2023-11-18T10:10:42.095Z,5.60
2023-11-18T10:13:08.967Z,7.43
2023-11-18T10:15:36.179Z,8.03
2023-11-18T10:18:04.362Z,9.90
2023-11-18T10:20:45.702Z,13.83
2023-11-18T10:23:16.953Z,9.33
2023-11-18T10:25:46.796Z,5.97
2023-11-18T10:28:22.700Z,7.63
2023-11-18T10:30:49.648Z,5.73
2023-11-18T10:33:16.838Z,6.77
2023-11-18T10:35:50.417Z,7.37
2023-11-18T10:38:20.114Z,14.03
2023-11-18T10:40:48.012Z,10.77
2023-11-18T10:43:14.925Z,7.47
2023-11-18T10:45:44.472Z,12.60
2023-11-18T10:48:13.069Z,13.80
2023-11-18T10:50:40.084Z,11.87
2023-11-18T10:53:07.233Z,7.70
2023-11-18T10:55:39.959Z,7.40
2023-11-18T10:58:07.049Z,8.43
2023-11-18T11:00:47.501Z,26.30
2023-11-18T11:03:14.424Z,12.50
2023-11-18T11:05:41.617Z,12.37
2023-11-18T11:08:08.985Z,18.30
2023-11-18T11:10:35.967Z,13.10
2023-11-18T11:13:08.322Z,9.60
2023-11-18T11:15:48.785Z,10.23
2023-11-18T11:18:22.771Z,39.37
2023-11-18T11:21:00.603Z,10.87
2023-11-18T11:23:36.624Z,7.27
2023-11-18T11:26:08.195Z,28.73
2023-11-18T11:28:43.402Z,16.70
2023-11-18T11:31:18.178Z,17.47
2023-11-18T11:33:54.276Z,6.27
2023-11-18T11:36:22.809Z,14.83
2023-11-18T11:38:53.176Z,13.10
2023-11-18T11:41:21.775Z,10.30
2023-11-18T11:43:52.530Z,11.50
2023-11-18T11:46:19.488Z,11.67
2023-11-18T11:48:46.683Z,11.13
2023-11-18T11:51:22.783Z,11.93
2023-11-18T11:53:56.360Z,11.33
2023-11-18T11:56:39.299Z,5.90
2023-11-18T11:59:08.799Z,7.47
2023-11-18T12:01:37.447Z,10.57
2023-11-18T12:04:04.722Z,7.97
2023-11-18T12:06:33.258Z,7.43
2023-11-18T12:09:00.216Z,6.13
2023-11-18T12:11:27.226Z,6.03
2023-11-18T12:14:04.567Z,5.97
2023-11-18T12:17:03.604Z,12.70
2023-11-18T12:19:34.085Z,6.27
2023-11-18T12:22:00.993Z,4.50
2023-11-18T12:24:27.915Z,7.63
2023-11-18T12:26:54.828Z,6.63
2023-11-18T12:29:34.319Z,7.47
2023-11-18T12:32:01.292Z,5.17
2023-11-18T12:34:56.103Z,12.67
2023-11-18T12:37:48.614Z,11.80
2023-11-18T12:40:48.080Z,18.90
2023-11-18T12:43:17.244Z,12.00
2023-11-18T12:46:20.095Z,7.87
2023-11-18T12:48:50.795Z,6.43
2023-11-18T12:51:20.893Z,5.70
2023-11-18T12:53:51.424Z,4.47
2023-11-18T12:56:20.161Z,6.37
2023-11-18T12:58:47.196Z,7.27
2023-11-18T13:01:14.166Z,8.40
2023-11-18T13:03:41.261Z,6.57
2023-11-18T13:06:08.553Z,14.53
2023-11-18T13:08:38.109Z,4.93
2023-11-18T13:11:06.001Z,10.63
2023-11-18T13:13:34.884Z,5.03
2023-11-18T13:16:01.805Z,4.97
2023-11-18T13:18:28.718Z,8.47
2023-11-18T13:20:56.191Z,10.90
2023-11-18T13:23:23.169Z,13.67
2023-11-18T13:25:56.050Z,8.93
2023-11-18T13:28:23.906Z,6.73
2023-11-18T13:30:51.317Z,7.47
2023-11-18T13:33:18.509Z,6.27
2023-11-18T13:35:47.787Z,7.57
2023-11-18T13:38:16.050Z,25.07
2023-11-18T13:40:47.067Z,4.93
2023-11-18T13:43:16.735Z,9.73
2023-11-18T13:45:44.177Z,7.60
2023-11-18T13:48:13.181Z,7.27
2023-11-18T13:50:41.963Z,4.37
2023-11-18T13:53:08.952Z,9.47
2023-11-18T13:55:35.933Z,12.83
2023-11-18T13:58:02.994Z,13.43
2023-11-18T14:00:32.901Z,5.30
2023-11-18T14:03:00.520Z,7.43
2023-11-18T14:05:27.679Z,6.17
2023-11-18T14:07:55.335Z,14.67
2023-11-18T14:10:22.589Z,11.73
2023-11-18T14:13:03.859Z,4.73
2023-11-18T14:15:33.738Z,5.23
2023-11-18T14:18:00.707Z,24.67
2023-11-18T14:20:27.667Z,25.17
2023-11-18T14:22:55.898Z,8.63
2023-11-18T14:25:22.957Z,19.03
2023-11-18T14:27:49.823Z,12.07
2023-11-18T14:30:16.801Z,20.57
2023-11-18T14:32:46.459Z,12.43
2023-11-18T14:35:13.530Z,16.93
2023-11-18T14:37:40.478Z,5.77
2023-11-18T14:40:09.133Z,7.23
2023-11-18T14:42:36.276Z,7.73
2023-11-18T14:45:03.215Z,11.73
2023-11-18T14:47:33.147Z,17.43
2023-11-18T14:50:02.755Z,6.50
2023-11-18T14:52:31.769Z,18.73
2023-11-18T14:54:59.460Z,7.50
2023-11-18T14:57:26.355Z,18.03
2023-11-18T14:59:53.228Z,12.17
2023-11-18T15:02:20.175Z,11.80
2023-11-18T15:04:47.106Z,8.30
2023-11-18T15:07:16.600Z,8.77
2023-11-18T15:09:43.480Z,21.27
2023-11-18T15:12:10.379Z,17.23
2023-11-18T15:14:39.664Z,12.00
2023-11-18T15:17:08.009Z,25.17
2023-11-18T15:19:34.915Z,12.93
2023-11-18T15:22:01.783Z,9.33
2023-11-18T15:24:31.278Z,20.63
2023-11-18T15:26:58.539Z,9.03
2023-11-18T15:29:25.426Z,12.03
2023-11-18T15:31:52.326Z,6.43
2023-11-18T15:34:19.220Z,4.93
2023-11-18T15:36:46.098Z,18.63
2023-11-18T15:39:12.986Z,11.27
2023-11-18T15:41:42.478Z,19.13
2023-11-18T15:44:09.488Z,6.37
2023-11-18T15:46:36.460Z,13.87
2023-11-18T15:49:03.565Z,16.77
2023-11-18T15:51:30.460Z,15.73
2023-11-18T15:53:57.472Z,40.53
2023-11-18T15:56:24.380Z,18.60
2023-11-18T15:58:53.874Z,19.07
2023-11-18T16:01:20.823Z,8.87
2023-11-18T16:03:47.887Z,8.03
2023-11-18T16:06:14.818Z,18.97
2023-11-18T16:08:41.710Z,11.40
2023-11-18T16:11:08.721Z,16.13
2023-11-18T16:13:35.621Z,11.73
2023-11-18T16:16:05.732Z,8.40
2023-11-18T16:18:32.704Z,14.57
2023-11-18T16:20:59.965Z,9.13
2023-11-18T16:23:26.933Z,11.87
2023-11-18T16:25:53.876Z,7.17
2023-11-18T16:28:20.752Z,12.27
2023-11-18T16:30:47.643Z,11.63
2023-11-18T16:33:17.263Z,16.00
2023-11-18T16:35:44.176Z,21.87
2023-11-18T16:38:11.152Z,27.77
2023-11-18T16:40:38.024Z,11.33
2023-11-18T16:43:04.904Z,11.90
2023-11-18T16:45:32.084Z,33.43
2023-11-18T16:47:59.252Z,40.10
2023-11-18T16:50:28.941Z,74.27
2023-11-18T16:52:56.052Z,31.43
2023-11-18T16:55:23.627Z,19.87
2023-11-18T16:57:53.547Z,23.03
2023-11-18T17:00:22.195Z,17.03
2023-11-18T17:02:50.467Z,9.27
2023-11-18T17:05:17.791Z,22.43
2023-11-18T17:07:47.432Z,19.37
2023-11-18T17:10:14.355Z,8.37
2023-11-18T17:12:42.325Z,10.23
2023-11-18T17:15:10.672Z,22.13
2023-11-18T17:17:37.654Z,24.53
2023-11-18T17:20:05.429Z,10.57
2023-11-18T17:22:32.345Z,16.20
2023-11-18T17:25:01.803Z,12.67
2023-11-18T17:27:28.751Z,12.10
2023-11-18T17:29:55.673Z,17.60
2023-11-18T17:32:22.720Z,10.97
2023-11-18T17:34:49.676Z,31.43
2023-11-18T17:37:16.572Z,21.83
2023-11-18T17:39:43.449Z,8.03
2023-11-18T17:42:12.930Z,11.07
2023-11-18T17:44:39.843Z,11.20
2023-11-18T17:47:06.790Z,8.63
2023-11-18T17:49:33.666Z,12.20
2023-11-18T17:52:00.536Z,12.23
2023-11-18T17:54:27.410Z,22.50
2023-11-18T17:56:54.338Z,8.40
2023-11-18T17:59:23.806Z,13.23
2023-11-18T18:01:50.729Z,9.00
2023-11-18T18:04:17.672Z,9.77
2023-11-18T18:06:44.638Z,50.77
2023-11-18T18:09:11.704Z,60.17
2023-11-18T18:11:38.717Z,64.33
2023-11-18T18:14:05.802Z,125.97
2023-11-18T18:16:35.292Z,97.37
2023-11-18T18:19:02.166Z,151.10
2023-11-18T18:21:29.051Z,186.10
2023-11-18T18:23:55.930Z,168.23
2023-11-18T18:26:22.883Z,213.87
2023-11-18T18:28:49.754Z,65.60
2023-11-18T18:31:16.673Z,377.67
2023-11-18T18:33:46.209Z,63.40
2023-11-18T18:36:13.141Z,70.43
2023-11-18T18:38:40.000Z,86.73
2023-11-18T18:41:07.174Z,31.97
2023-11-18T18:43:34.044Z,40.90
2023-11-18T18:46:01.293Z,94.27
2023-11-18T18:48:28.254Z,53.87
2023-11-18T18:50:57.801Z,45.77
2023-11-18T18:53:24.688Z,25.73
2023-11-18T18:55:51.635Z,37.47
2023-11-18T18:58:18.549Z,20.63
2023-11-18T19:00:45.493Z,11.87
2023-11-18T19:03:12.561Z,46.77
2023-11-18T19:05:39.567Z,90.23
2023-11-18T19:08:09.111Z,34.00
2023-11-18T19:10:35.991Z,47.70
2023-11-18T19:13:02.883Z,28.43
2023-11-18T19:15:30.014Z,26.83
2023-11-18T19:17:57.225Z,11.63
2023-11-18T19:20:24.307Z,17.17
2023-11-18T19:22:51.883Z,49.23
2023-11-18T19:25:21.649Z,62.17
2023-11-18T19:27:48.580Z,18.60
2023-11-18T19:30:15.566Z,24.67
2023-11-18T19:32:42.969Z,19.33
2023-11-18T19:35:10.022Z,20.63
2023-11-18T19:37:37.227Z,45.97
2023-11-18T19:40:05.291Z,55.43
2023-11-18T19:42:34.793Z,26.53
2023-11-18T19:45:01.785Z,16.03
2023-11-18T19:47:28.794Z,11.10
2023-11-18T19:49:55.810Z,10.50
2023-11-18T19:52:22.687Z,19.60
2023-11-18T19:54:49.651Z,23.77
2023-11-18T19:57:16.682Z,15.23
2023-11-18T19:59:46.209Z,14.13
2023-11-18T20:02:13.099Z,28.43
2023-11-18T20:04:39.975Z,16.87
2023-11-18T20:07:06.896Z,36.73
2023-11-18T20:09:33.780Z,36.43
2023-11-18T20:14:30.487Z,15.07
2023-11-18T20:17:00.098Z,10.23
2023-11-18T20:19:27.607Z,8.20
2023-11-18T20:21:54.505Z,19.43
2023-11-18T20:24:21.464Z,15.13
2023-11-18T20:26:48.368Z,12.00
2023-11-18T20:29:15.354Z,9.77
2023-11-18T20:31:42.493Z,9.27
2023-11-18T20:34:12.031Z,9.53
2023-11-18T20:36:39.108Z,9.13
2023-11-18T20:39:06.400Z,11.33
2023-11-18T20:41:33.348Z,23.67
2023-11-18T20:44:00.274Z,8.53
2023-11-18T20:46:27.180Z,14.20
2023-11-18T20:48:54.098Z,7.23
2023-11-18T20:51:23.770Z,6.33
2023-11-18T20:53:50.698Z,15.70
2023-11-18T20:56:17.669Z,11.00
2023-11-18T20:58:44.612Z,9.63
2023-11-18T21:01:11.522Z,10.17
2023-11-18T21:03:38.630Z,11.43
2023-11-18T21:06:06.296Z,9.50
2023-11-18T21:08:36.028Z,11.63
2023-11-18T21:11:02.967Z,8.00
2023-11-18T21:13:29.875Z,4.23
2023-11-18T21:15:56.774Z,6.17
2023-11-18T21:18:23.679Z,8.47
2023-11-18T21:20:50.562Z,9.87
2023-11-18T21:23:17.504Z,8.07
2023-11-18T21:25:47.020Z,12.83
2023-11-18T21:28:13.912Z,8.90
2023-11-18T21:30:40.842Z,7.20
2023-11-18T21:33:07.832Z,4.23
2023-11-18T21:35:34.813Z,8.27
2023-11-18T21:38:01.877Z,9.60
2023-11-18T21:40:28.751Z,10.67
2023-11-18T21:42:58.261Z,32.27
2023-11-18T21:45:25.215Z,29.60
2023-11-18T21:47:52.351Z,22.30
2023-11-18T21:50:19.307Z,52.57
2023-11-18T21:52:46.238Z,39.97
2023-11-18T21:55:13.268Z,25.30
2023-11-18T21:57:40.249Z,75.93
2023-11-18T22:00:11.091Z,80.23
2023-11-18T22:02:38.037Z,45.53
2023-11-18T22:05:05.614Z,37.37
2023-11-18T22:10:43.370Z,21.40
2023-11-18T22:13:10.231Z,15.03
2023-11-18T22:15:39.708Z,14.83
2023-11-18T22:18:06.622Z,6.93
2023-11-18T22:20:33.544Z,8.20
2023-11-18T22:23:00.437Z,4.53
2023-11-18T22:25:27.388Z,7.83
2023-11-18T22:27:54.329Z,34.53
2023-11-18T22:30:21.222Z,22.43
2023-11-18T22:32:50.852Z,25.50
2023-11-18T22:35:17.831Z,15.63
2023-11-18T22:37:44.755Z,9.47
2023-11-18T22:40:12.500Z,5.97
2023-11-18T22:42:39.399Z,9.37
2023-11-18T22:45:07.252Z,4.70
2023-11-18T22:47:34.186Z,4.87
2023-11-18T22:50:04.373Z,4.60
2023-11-18T22:52:31.250Z,3.67
2023-11-18T22:54:58.207Z,3.80
2023-11-18T22:57:25.112Z,3.90
2023-11-18T22:59:52.035Z,2.93
2023-11-18T23:02:19.000Z,3.73
2023-11-18T23:04:45.907Z,3.87
2023-11-18T23:07:15.401Z,6.40
2023-11-18T23:09:42.343Z,9.40
2023-11-18T23:12:09.434Z,5.30
2023-11-18T23:14:36.401Z,2.87
2023-11-18T23:19:38.567Z,2.20
2023-11-18T23:22:15.281Z,3.40
2023-11-18T23:24:42.225Z,1.60
2023-11-18T23:27:09.148Z,2.97
2023-11-18T23:29:36.048Z,2.07
2023-11-18T23:32:03.108Z,6.63
2023-11-18T23:34:30.047Z,4.17
2023-11-18T23:36:56.946Z,4.07
2023-11-18T23:39:26.431Z,2.70
2023-11-18T23:41:53.290Z,2.40
2023-11-18T23:44:20.147Z,5.97
2023-11-18T23:46:47.114Z,2.83
2023-11-18T23:49:14.265Z,2.27
2023-11-18T23:51:41.180Z,2.30
2023-11-18T23:54:10.836Z,2.40
2023-11-18T23:56:40.307Z,3.63
2023-11-18T23:59:07.421Z,2.13
